sensor_id;sensor_type;location;lat;lon;timestamp;P1;durP1;ratioP1;P2;durP2;ratioP2
19566;SDS011;9930;49.240;8.548;2023-03-01T00:01:35;6.90;;;6.03;;
19566;SDS011;9930;49.240;8.548;2023-03-01T00:04:01;6.67;;;6.07;;
19566;SDS011;9930;49.240;8.548;2023-03-01T00:06:27;7.77;;;6.53;;
19566;SDS011;9930;49.240;8.548;2023-03-01T00:08:55;8.20;;;7.00;;
19566;SDS011;9930;49.240;8.548;2023-03-01T00:13:54;7.23;;;5.80;;
19566;SDS011;9930;49.240;8.548;2023-03-01T00:16:24;6.87;;;6.07;;
19566;SDS011;9930;49.240;8.548;2023-03-01T00:18:51;7.30;;;5.97;;
19566;SDS011;9930;49.240;8.548;2023-03-01T00:21:21;6.87;;;6.17;;
19566;SDS011;9930;49.240;8.548;2023-03-01T00:23:51;7.10;;;6.23;;
19566;SDS011;9930;49.240;8.548;2023-03-01T00:26:21;5.73;;;5.10;;
19566;SDS011;9930;49.240;8.548;2023-03-01T00:28:48;6.27;;;5.47;;
19566;SDS011;9930;49.240;8.548;2023-03-01T00:31:17;6.40;;;5.77;;
19566;SDS011;9930;49.240;8.548;2023-03-01T00:33:52;6.90;;;5.53;;
19566;SDS011;9930;49.240;8.548;2023-03-01T00:36:25;6.97;;;6.13;;
19566;SDS011;9930;49.240;8.548;2023-03-01T00:38:54;7.60;;;6.33;;
19566;SDS011;9930;49.240;8.548;2023-03-01T00:41:23;7.20;;;6.43;;
19566;SDS011;9930;49.240;8.548;2023-03-01T00:43:54;6.80;;;5.70;;
19566;SDS011;9930;49.240;8.548;2023-03-01T00:46:25;8.57;;;6.43;;
19566;SDS011;9930;49.240;8.548;2023-03-01T00:48:55;7.37;;;6.53;;
19566;SDS011;9930;49.240;8.548;2023-03-01T00:51:24;7.20;;;6.27;;
19566;SDS011;9930;49.240;8.548;2023-03-01T00:53:53;6.90;;;6.13;;
19566;SDS011;9930;49.240;8.548;2023-03-01T00:56:22;6.93;;;6.00;;
19566;SDS011;9930;49.240;8.548;2023-03-01T00:58:50;8.00;;;7.20;;
19566;SDS011;9930;49.240;8.548;2023-03-01T01:01:26;8.17;;;7.03;;
19566;SDS011;9930;49.240;8.548;2023-03-01T01:03:59;8.43;;;6.87;;
19566;SDS011;9930;49.240;8.548;2023-03-01T01:09:05;7.30;;;6.20;;
19566;SDS011;9930;49.240;8.548;2023-03-01T01:11:44;6.67;;;6.03;;
19566;SDS011;9930;49.240;8.548;2023-03-01T01:14:15;6.70;;;6.00;;
19566;SDS011;9930;49.240;8.548;2023-03-01T01:16:41;6.33;;;5.57;;
19566;SDS011;9930;49.240;8.548;2023-03-01T01:19:09;5.90;;;5.37;;
19566;SDS011;9930;49.240;8.548;2023-03-01T01:21:36;7.53;;;6.30;;
19566;SDS011;9930;49.240;8.548;2023-03-01T01:24:08;7.53;;;6.10;;
19566;SDS011;9930;49.240;8.548;2023-03-01T01:26:39;6.63;;;5.93;;
19566;SDS011;9930;49.240;8.548;2023-03-01T01:29:05;6.67;;;5.73;;
19566;SDS011;9930;49.240;8.548;2023-03-01T01:31:35;6.27;;;5.63;;
19566;SDS011;9930;49.240;8.548;2023-03-01T01:34:04;8.47;;;6.10;;
19566;SDS011;9930;49.240;8.548;2023-03-01T01:36:32;7.80;;;6.17;;
19566;SDS011;9930;49.240;8.548;2023-03-01T01:39:00;8.97;;;6.40;;
19566;SDS011;9930;49.240;8.548;2023-03-01T01:41:28;6.97;;;6.07;;
19566;SDS011;9930;49.240;8.548;2023-03-01T01:44:12;7.57;;;6.00;;
19566;SDS011;9930;49.240;8.548;2023-03-01T01:46:53;8.43;;;6.57;;
19566;SDS011;9930;49.240;8.548;2023-03-01T01:49:41;6.80;;;5.83;;
19566;SDS011;9930;49.240;8.548;2023-03-01T01:52:22;6.97;;;5.90;;
19566;SDS011;9930;49.240;8.548;2023-03-01T01:55:11;6.73;;;5.90;;
19566;SDS011;9930;49.240;8.548;2023-03-01T01:57:47;5.90;;;5.30;;
19566;SDS011;9930;49.240;8.548;2023-03-01T02:00:22;6.60;;;5.90;;
19566;SDS011;9930;49.240;8.548;2023-03-01T02:03:01;7.37;;;6.57;;
19566;SDS011;9930;49.240;8.548;2023-03-01T02:08:15;7.03;;;6.00;;
19566;SDS011;9930;49.240;8.548;2023-03-01T02:10:45;6.77;;;6.03;;
19566;SDS011;9930;49.240;8.548;2023-03-01T02:13:14;6.83;;;6.13;;
19566;SDS011;9930;49.240;8.548;2023-03-01T02:15:40;6.27;;;5.67;;
19566;SDS011;9930;49.240;8.548;2023-03-01T02:18:11;7.27;;;6.53;;
19566;SDS011;9930;49.240;8.548;2023-03-01T02:24:21;6.90;;;6.20;;
19566;SDS011;9930;49.240;8.548;2023-03-01T02:27:00;7.47;;;6.53;;
19566;SDS011;9930;49.240;8.548;2023-03-01T02:29:27;8.63;;;6.73;;
19566;SDS011;9930;49.240;8.548;2023-03-01T02:31:54;6.97;;;6.20;;
19566;SDS011;9930;49.240;8.548;2023-03-01T02:34:25;7.93;;;6.73;;
19566;SDS011;9930;49.240;8.548;2023-03-01T02:36:58;8.57;;;6.80;;
19566;SDS011;9930;49.240;8.548;2023-03-01T02:39:44;9.00;;;6.70;;
19566;SDS011;9930;49.240;8.548;2023-03-01T02:42:18;9.97;;;8.07;;
19566;SDS011;9930;49.240;8.548;2023-03-01T02:45:01;10.43;;;7.17;;
19566;SDS011;9930;49.240;8.548;2023-03-01T02:47:28;9.43;;;7.33;;
19566;SDS011;9930;49.240;8.548;2023-03-01T02:49:53;8.87;;;7.30;;
19566;SDS011;9930;49.240;8.548;2023-03-01T02:55:12;7.63;;;6.17;;
19566;SDS011;9930;49.240;8.548;2023-03-01T02:57:45;7.53;;;6.37;;
19566;SDS011;9930;49.240;8.548;2023-03-01T03:00:20;9.70;;;7.10;;
19566;SDS011;9930;49.240;8.548;2023-03-01T03:02:51;9.63;;;7.20;;
19566;SDS011;9930;49.240;8.548;2023-03-01T03:05:30;8.20;;;7.37;;
19566;SDS011;9930;49.240;8.548;2023-03-01T03:08:04;7.90;;;7.10;;
19566;SDS011;9930;49.240;8.548;2023-03-01T03:10:33;7.87;;;6.90;;
19566;SDS011;9930;49.240;8.548;2023-03-01T03:13:10;10.23;;;7.77;;
19566;SDS011;9930;49.240;8.548;2023-03-01T03:15:38;8.60;;;7.63;;
19566;SDS011;9930;49.240;8.548;2023-03-01T03:18:07;8.50;;;7.60;;
19566;SDS011;9930;49.240;8.548;2023-03-01T03:20:39;8.00;;;7.20;;
19566;SDS011;9930;49.240;8.548;2023-03-01T03:23:09;7.77;;;6.90;;
19566;SDS011;9930;49.240;8.548;2023-03-01T03:25:35;8.83;;;7.23;;
19566;SDS011;9930;49.240;8.548;2023-03-01T03:28:04;8.07;;;6.93;;
19566;SDS011;9930;49.240;8.548;2023-03-01T03:30:37;8.00;;;7.20;;
19566;SDS011;9930;49.240;8.548;2023-03-01T03:33:08;10.17;;;7.57;;
19566;SDS011;9930;49.240;8.548;2023-03-01T03:35:42;8.90;;;7.80;;
19566;SDS011;9930;49.240;8.548;2023-03-01T03:38:17;7.87;;;6.93;;
19566;SDS011;9930;49.240;8.548;2023-03-01T03:41:00;9.93;;;7.87;;
19566;SDS011;9930;49.240;8.548;2023-03-01T03:43:30;9.70;;;7.97;;
19566;SDS011;9930;49.240;8.548;2023-03-01T03:46:03;9.17;;;7.27;;
19566;SDS011;9930;49.240;8.548;2023-03-01T03:48:41;8.20;;;7.30;;
19566;SDS011;9930;49.240;8.548;2023-03-01T03:51:10;8.10;;;6.83;;
19566;SDS011;9930;49.240;8.548;2023-03-01T03:53:40;8.13;;;7.17;;
19566;SDS011;9930;49.240;8.548;2023-03-01T03:56:07;9.87;;;7.90;;
19566;SDS011;9930;49.240;8.548;2023-03-01T03:58:36;9.00;;;8.10;;
19566;SDS011;9930;49.240;8.548;2023-03-01T04:01:02;9.30;;;7.27;;
19566;SDS011;9930;49.240;8.548;2023-03-01T04:03:34;9.93;;;7.70;;
19566;SDS011;9930;49.240;8.548;2023-03-01T04:06:02;8.73;;;7.83;;
19566;SDS011;9930;49.240;8.548;2023-03-01T04:08:29;9.37;;;7.77;;
19566;SDS011;9930;49.240;8.548;2023-03-01T04:11:00;9.53;;;8.53;;
19566;SDS011;9930;49.240;8.548;2023-03-01T04:13:49;9.87;;;8.20;;
19566;SDS011;9930;49.240;8.548;2023-03-01T04:16:17;8.90;;;7.73;;
19566;SDS011;9930;49.240;8.548;2023-03-01T04:18:43;10.13;;;8.00;;
19566;SDS011;9930;49.240;8.548;2023-03-01T04:21:09;8.73;;;7.77;;
19566;SDS011;9930;49.240;8.548;2023-03-01T04:23:36;8.93;;;7.73;;
19566;SDS011;9930;49.240;8.548;2023-03-01T04:26:04;9.70;;;7.83;;
19566;SDS011;9930;49.240;8.548;2023-03-01T04:28:33;9.63;;;7.33;;
19566;SDS011;9930;49.240;8.548;2023-03-01T04:31:15;9.53;;;8.10;;
19566;SDS011;9930;49.240;8.548;2023-03-01T04:33:50;9.43;;;7.47;;
19566;SDS011;9930;49.240;8.548;2023-03-01T04:36:24;10.87;;;8.60;;
19566;SDS011;9930;49.240;8.548;2023-03-01T04:38:52;9.20;;;7.53;;
19566;SDS011;9930;49.240;8.548;2023-03-01T04:41:20;8.87;;;7.77;;
19566;SDS011;9930;49.240;8.548;2023-03-01T04:43:48;10.07;;;8.33;;
19566;SDS011;9930;49.240;8.548;2023-03-01T04:46:16;9.13;;;7.37;;
19566;SDS011;9930;49.240;8.548;2023-03-01T04:48:46;8.67;;;7.60;;
19566;SDS011;9930;49.240;8.548;2023-03-01T04:51:12;9.73;;;8.20;;
19566;SDS011;9930;49.240;8.548;2023-03-01T04:53:39;9.33;;;8.30;;
19566;SDS011;9930;49.240;8.548;2023-03-01T04:56:06;10.43;;;8.30;;
19566;SDS011;9930;49.240;8.548;2023-03-01T04:58:32;9.43;;;7.83;;
19566;SDS011;9930;49.240;8.548;2023-03-01T05:00:59;9.83;;;7.83;;
19566;SDS011;9930;49.240;8.548;2023-03-01T05:03:35;8.97;;;7.80;;
19566;SDS011;9930;49.240;8.548;2023-03-01T05:06:03;8.47;;;7.57;;
19566;SDS011;9930;49.240;8.548;2023-03-01T05:08:32;8.73;;;7.57;;
19566;SDS011;9930;49.240;8.548;2023-03-01T05:10:59;8.27;;;7.10;;
19566;SDS011;9930;49.240;8.548;2023-03-01T05:13:25;9.50;;;7.63;;
19566;SDS011;9930;49.240;8.548;2023-03-01T05:15:58;10.03;;;8.77;;
19566;SDS011;9930;49.240;8.548;2023-03-01T05:18:29;11.03;;;9.07;;
19566;SDS011;9930;49.240;8.548;2023-03-01T05:21:07;11.17;;;8.53;;
19566;SDS011;9930;49.240;8.548;2023-03-01T05:23:36;10.77;;;9.23;;
19566;SDS011;9930;49.240;8.548;2023-03-01T05:26:03;9.83;;;8.60;;
19566;SDS011;9930;49.240;8.548;2023-03-01T05:28:36;11.50;;;9.13;;
19566;SDS011;9930;49.240;8.548;2023-03-01T05:31:07;9.40;;;8.40;;
19566;SDS011;9930;49.240;8.548;2023-03-01T05:33:37;9.27;;;8.17;;
19566;SDS011;9930;49.240;8.548;2023-03-01T05:36:06;11.67;;;9.30;;
19566;SDS011;9930;49.240;8.548;2023-03-01T05:38:34;13.87;;;10.23;;
19566;SDS011;9930;49.240;8.548;2023-03-01T05:41:03;11.97;;;9.20;;
19566;SDS011;9930;49.240;8.548;2023-03-01T05:43:31;10.70;;;8.93;;
19566;SDS011;9930;49.240;8.548;2023-03-01T05:46:02;10.33;;;8.63;;
19566;SDS011;9930;49.240;8.548;2023-03-01T05:48:28;10.77;;;8.73;;
19566;SDS011;9930;49.240;8.548;2023-03-01T05:50:54;10.93;;;9.53;;
19566;SDS011;9930;49.240;8.548;2023-03-01T05:53:20;10.93;;;9.17;;
19566;SDS011;9930;49.240;8.548;2023-03-01T05:55:46;10.37;;;8.40;;
19566;SDS011;9930;49.240;8.548;2023-03-01T05:58:18;11.40;;;9.60;;
19566;SDS011;9930;49.240;8.548;2023-03-01T06:00:45;11.93;;;8.80;;
19566;SDS011;9930;49.240;8.548;2023-03-01T06:03:14;10.10;;;8.77;;
19566;SDS011;9930;49.240;8.548;2023-03-01T06:05:42;9.00;;;8.03;;
19566;SDS011;9930;49.240;8.548;2023-03-01T06:08:12;9.60;;;8.60;;
19566;SDS011;9930;49.240;8.548;2023-03-01T06:10:38;9.23;;;8.23;;
19566;SDS011;9930;49.240;8.548;2023-03-01T06:13:04;11.77;;;7.83;;
19566;SDS011;9930;49.240;8.548;2023-03-01T06:15:30;10.57;;;8.50;;
19566;SDS011;9930;49.240;8.548;2023-03-01T06:17:58;9.20;;;8.27;;
19566;SDS011;9930;49.240;8.548;2023-03-01T06:20:25;10.33;;;8.70;;
19566;SDS011;9930;49.240;8.548;2023-03-01T06:22:53;10.43;;;8.63;;
19566;SDS011;9930;49.240;8.548;2023-03-01T06:25:20;10.60;;;9.17;;
19566;SDS011;9930;49.240;8.548;2023-03-01T06:27:48;9.50;;;8.10;;
19566;SDS011;9930;49.240;8.548;2023-03-01T06:30:15;11.27;;;9.40;;
19566;SDS011;9930;49.240;8.548;2023-03-01T06:32:44;10.47;;;8.60;;
19566;SDS011;9930;49.240;8.548;2023-03-01T06:35:11;10.47;;;8.93;;
19566;SDS011;9930;49.240;8.548;2023-03-01T06:37:40;9.97;;;8.67;;
19566;SDS011;9930;49.240;8.548;2023-03-01T06:40:09;9.90;;;8.40;;
19566;SDS011;9930;49.240;8.548;2023-03-01T06:42:37;10.50;;;8.57;;
19566;SDS011;9930;49.240;8.548;2023-03-01T06:45:07;10.70;;;8.67;;
19566;SDS011;9930;49.240;8.548;2023-03-01T06:47:36;11.37;;;8.70;;
19566;SDS011;9930;49.240;8.548;2023-03-01T06:50:02;10.57;;;8.80;;
19566;SDS011;9930;49.240;8.548;2023-03-01T06:52:29;9.77;;;8.03;;
19566;SDS011;9930;49.240;8.548;2023-03-01T06:55:04;9.87;;;8.70;;
19566;SDS011;9930;49.240;8.548;2023-03-01T06:57:33;10.90;;;9.03;;
19566;SDS011;9930;49.240;8.548;2023-03-01T07:00:01;9.80;;;8.80;;
19566;SDS011;9930;49.240;8.548;2023-03-01T07:02:33;10.80;;;9.17;;
19566;SDS011;9930;49.240;8.548;2023-03-01T07:04:58;17.20;;;12.37;;
19566;SDS011;9930;49.240;8.548;2023-03-01T07:07:28;23.20;;;13.47;;
19566;SDS011;9930;49.240;8.548;2023-03-01T07:09:56;18.80;;;12.27;;
19566;SDS011;9930;49.240;8.548;2023-03-01T07:12:24;18.50;;;12.27;;
19566;SDS011;9930;49.240;8.548;2023-03-01T07:14:50;13.60;;;10.77;;
19566;SDS011;9930;49.240;8.548;2023-03-01T07:17:15;14.27;;;11.07;;
19566;SDS011;9930;49.240;8.548;2023-03-01T07:19:44;13.10;;;9.80;;
19566;SDS011;9930;49.240;8.548;2023-03-01T07:22:10;11.83;;;10.33;;
19566;SDS011;9930;49.240;8.548;2023-03-01T07:24:38;12.40;;;10.03;;
19566;SDS011;9930;49.240;8.548;2023-03-01T07:27:06;12.30;;;10.47;;
19566;SDS011;9930;49.240;8.548;2023-03-01T07:29:32;12.00;;;10.30;;
19566;SDS011;9930;49.240;8.548;2023-03-01T07:31:58;11.13;;;9.93;;
19566;SDS011;9930;49.240;8.548;2023-03-01T07:34:26;12.23;;;10.90;;
19566;SDS011;9930;49.240;8.548;2023-03-01T07:36:52;11.63;;;10.20;;
19566;SDS011;9930;49.240;8.548;2023-03-01T07:39:17;12.13;;;10.17;;
19566;SDS011;9930;49.240;8.548;2023-03-01T07:41:43;12.10;;;10.13;;
19566;SDS011;9930;49.240;8.548;2023-03-01T07:44:09;10.97;;;9.80;;
19566;SDS011;9930;49.240;8.548;2023-03-01T07:46:35;12.07;;;10.57;;
19566;SDS011;9930;49.240;8.548;2023-03-01T07:49:01;10.43;;;8.97;;
19566;SDS011;9930;49.240;8.548;2023-03-01T07:51:27;11.90;;;10.23;;
19566;SDS011;9930;49.240;8.548;2023-03-01T07:53:53;12.17;;;10.17;;
19566;SDS011;9930;49.240;8.548;2023-03-01T07:56:19;12.43;;;10.67;;
19566;SDS011;9930;49.240;8.548;2023-03-01T07:58:46;13.17;;;11.07;;
19566;SDS011;9930;49.240;8.548;2023-03-01T08:01:15;13.77;;;10.73;;
19566;SDS011;9930;49.240;8.548;2023-03-01T08:03:44;12.93;;;10.33;;
19566;SDS011;9930;49.240;8.548;2023-03-01T08:06:10;14.33;;;11.97;;
19566;SDS011;9930;49.240;8.548;2023-03-01T08:08:39;13.33;;;11.07;;
19566;SDS011;9930;49.240;8.548;2023-03-01T08:11:06;13.40;;;10.20;;
19566;SDS011;9930;49.240;8.548;2023-03-01T08:13:38;13.10;;;10.77;;
19566;SDS011;9930;49.240;8.548;2023-03-01T08:16:06;13.67;;;11.23;;
19566;SDS011;9930;49.240;8.548;2023-03-01T08:18:37;12.13;;;10.83;;
19566;SDS011;9930;49.240;8.548;2023-03-01T08:21:14;13.87;;;10.07;;
19566;SDS011;9930;49.240;8.548;2023-03-01T08:23:42;14.33;;;11.17;;
19566;SDS011;9930;49.240;8.548;2023-03-01T08:26:10;12.73;;;10.40;;
19566;SDS011;9930;49.240;8.548;2023-03-01T08:28:38;12.50;;;10.67;;
19566;SDS011;9930;49.240;8.548;2023-03-01T08:31:24;14.27;;;12.07;;
19566;SDS011;9930;49.240;8.548;2023-03-01T08:34:04;15.50;;;12.63;;
19566;SDS011;9930;49.240;8.548;2023-03-01T08:36:38;12.90;;;11.45;;
19566;SDS011;9930;49.240;8.548;2023-03-01T08:39:07;13.77;;;11.37;;
19566;SDS011;9930;49.240;8.548;2023-03-01T08:41:38;12.10;;;10.80;;
19566;SDS011;9930;49.240;8.548;2023-03-01T08:44:08;14.50;;;12.30;;
19566;SDS011;9930;49.240;8.548;2023-03-01T08:46:37;15.57;;;13.27;;
19566;SDS011;9930;49.240;8.548;2023-03-01T08:49:08;14.18;;;12.50;;
19566;SDS011;9930;49.240;8.548;2023-03-01T08:51:44;13.32;;;11.93;;
19566;SDS011;9930;49.240;8.548;2023-03-01T08:54:17;12.67;;;11.37;;
19566;SDS011;9930;49.240;8.548;2023-03-01T08:56:48;13.13;;;11.57;;
19566;SDS011;9930;49.240;8.548;2023-03-01T08:59:14;13.53;;;10.87;;
19566;SDS011;9930;49.240;8.548;2023-03-01T09:01:43;15.32;;;12.15;;
19566;SDS011;9930;49.240;8.548;2023-03-01T09:04:14;13.27;;;11.48;;
19566;SDS011;9930;49.240;8.548;2023-03-01T09:06:40;15.40;;;12.38;;
19566;SDS011;9930;49.240;8.548;2023-03-01T09:09:06;14.43;;;12.23;;
19566;SDS011;9930;49.240;8.548;2023-03-01T09:11:39;14.05;;;12.10;;
19566;SDS011;9930;49.240;8.548;2023-03-01T09:14:05;15.30;;;12.70;;
19566;SDS011;9930;49.240;8.548;2023-03-01T09:16:32;14.20;;;11.10;;
19566;SDS011;9930;49.240;8.548;2023-03-01T09:19:02;14.40;;;12.75;;
19566;SDS011;9930;49.240;8.548;2023-03-01T09:21:31;13.90;;;12.00;;
19566;SDS011;9930;49.240;8.548;2023-03-01T09:23:59;13.43;;;12.02;;
19566;SDS011;9930;49.240;8.548;2023-03-01T09:26:30;13.75;;;12.02;;
19566;SDS011;9930;49.240;8.548;2023-03-01T09:28:55;14.32;;;12.77;;
19566;SDS011;9930;49.240;8.548;2023-03-01T09:31:22;14.25;;;12.40;;
19566;SDS011;9930;49.240;8.548;2023-03-01T09:33:50;13.48;;;11.98;;
19566;SDS011;9930;49.240;8.548;2023-03-01T09:36:20;13.63;;;12.13;;
19566;SDS011;9930;49.240;8.548;2023-03-01T09:38:50;15.68;;;13.20;;
19566;SDS011;9930;49.240;8.548;2023-03-01T09:47:02;15.52;;;13.70;;
19566;SDS011;9930;49.240;8.548;2023-03-01T09:49:39;13.88;;;12.45;;
19566;SDS011;9930;49.240;8.548;2023-03-01T09:55:04;14.00;;;12.40;;
19566;SDS011;9930;49.240;8.548;2023-03-01T10:11:17;14.52;;;12.70;;
19566;SDS011;9930;49.240;8.548;2023-03-01T10:14:31;13.80;;;12.23;;
19566;SDS011;9930;49.240;8.548;2023-03-01T10:20:33;14.80;;;12.00;;
19566;SDS011;9930;49.240;8.548;2023-03-01T10:23:08;15.50;;;13.18;;
19566;SDS011;9930;49.240;8.548;2023-03-01T10:30:57;12.23;;;10.95;;
19566;SDS011;9930;49.240;8.548;2023-03-01T10:33:27;13.93;;;12.25;;
19566;SDS011;9930;49.240;8.548;2023-03-01T10:36:01;13.30;;;11.90;;
19566;SDS011;9930;49.240;8.548;2023-03-01T10:38:30;13.95;;;12.55;;
19566;SDS011;9930;49.240;8.548;2023-03-01T10:41:13;15.07;;;12.73;;
19566;SDS011;9930;49.240;8.548;2023-03-01T10:46:30;13.70;;;12.05;;
19566;SDS011;9930;49.240;8.548;2023-03-01T10:51:49;14.30;;;11.70;;
19566;SDS011;9930;49.240;8.548;2023-03-01T10:56:57;17.27;;;13.88;;
19566;SDS011;9930;49.240;8.548;2023-03-01T11:05:15;14.30;;;12.45;;
19566;SDS011;9930;49.240;8.548;2023-03-01T11:07:46;13.88;;;11.73;;
19566;SDS011;9930;49.240;8.548;2023-03-01T11:10:26;12.55;;;11.30;;
19566;SDS011;9930;49.240;8.548;2023-03-01T11:12:54;13.63;;;12.23;;
19566;SDS011;9930;49.240;8.548;2023-03-01T11:15:41;15.23;;;12.52;;
19566;SDS011;9930;49.240;8.548;2023-03-01T11:18:18;13.57;;;12.18;;
19566;SDS011;9930;49.240;8.548;2023-03-01T11:20:51;13.65;;;12.25;;
19566;SDS011;9930;49.240;8.548;2023-03-01T11:23:20;14.23;;;12.75;;
19566;SDS011;9930;49.240;8.548;2023-03-01T11:25:55;14.82;;;12.73;;
19566;SDS011;9930;49.240;8.548;2023-03-01T11:28:27;13.65;;;12.25;;
19566;SDS011;9930;49.240;8.548;2023-03-01T11:33:41;13.70;;;12.30;;
19566;SDS011;9930;49.240;8.548;2023-03-01T11:36:41;12.73;;;11.40;;
19566;SDS011;9930;49.240;8.548;2023-03-01T11:42:20;13.50;;;12.05;;
19566;SDS011;9930;49.240;8.548;2023-03-01T11:45:10;13.68;;;12.18;;
19566;SDS011;9930;49.240;8.548;2023-03-01T11:50:38;16.65;;;12.30;;
19566;SDS011;9930;49.240;8.548;2023-03-01T11:56:18;12.60;;;11.30;;
19566;SDS011;9930;49.240;8.548;2023-03-01T12:02:11;14.18;;;12.70;;
19566;SDS011;9930;49.240;8.548;2023-03-01T12:17:33;12.98;;;11.07;;
19566;SDS011;9930;49.240;8.548;2023-03-01T12:19:59;11.82;;;10.63;;
19566;SDS011;9930;49.240;8.548;2023-03-01T12:25:45;12.13;;;10.85;;
19566;SDS011;9930;49.240;8.548;2023-03-01T12:37:25;11.73;;;10.52;;
19566;SDS011;9930;49.240;8.548;2023-03-01T12:46:17;12.90;;;11.50;;
19566;SDS011;9930;49.240;8.548;2023-03-01T12:51:38;11.63;;;10.52;;
19566;SDS011;9930;49.240;8.548;2023-03-01T12:54:19;12.23;;;11.02;;
19566;SDS011;9930;49.240;8.548;2023-03-01T12:56:58;12.02;;;10.80;;
19566;SDS011;9930;49.240;8.548;2023-03-01T13:05:20;13.50;;;11.00;;
19566;SDS011;9930;49.240;8.548;2023-03-01T13:10:47;11.43;;;10.23;;
19566;SDS011;9930;49.240;8.548;2023-03-01T13:13:26;11.18;;;9.95;;
19566;SDS011;9930;49.240;8.548;2023-03-01T13:15:57;11.90;;;10.70;;
19566;SDS011;9930;49.240;8.548;2023-03-01T13:18:46;12.75;;;11.45;;
19566;SDS011;9930;49.240;8.548;2023-03-01T13:21:14;11.80;;;10.63;;
19566;SDS011;9930;49.240;8.548;2023-03-01T13:24:02;11.50;;;10.38;;
19566;SDS011;9930;49.240;8.548;2023-03-01T13:35:39;11.35;;;10.23;;
19566;SDS011;9930;49.240;8.548;2023-03-01T13:41:03;10.88;;;9.77;;
19566;SDS011;9930;49.240;8.548;2023-03-01T13:43:35;11.02;;;9.93;;
19566;SDS011;9930;49.240;8.548;2023-03-01T13:46:26;11.60;;;10.45;;
19566;SDS011;9930;49.240;8.548;2023-03-01T13:48:51;12.15;;;10.95;;
19566;SDS011;9930;49.240;8.548;2023-03-01T13:51:25;11.55;;;10.35;;
19566;SDS011;9930;49.240;8.548;2023-03-01T13:53:55;11.63;;;9.73;;
19566;SDS011;9930;49.240;8.548;2023-03-01T13:56:24;11.57;;;10.38;;
19566;SDS011;9930;49.240;8.548;2023-03-01T14:02:19;11.90;;;10.68;;
19566;SDS011;9930;49.240;8.548;2023-03-01T14:04:38;11.88;;;10.68;;
19566;SDS011;9930;49.240;8.548;2023-03-01T14:07:23;12.80;;;11.43;;
19566;SDS011;9930;49.240;8.548;2023-03-01T14:10:02;11.05;;;9.95;;
19566;SDS011;9930;49.240;8.548;2023-03-01T14:18:16;12.65;;;10.40;;
19566;SDS011;9930;49.240;8.548;2023-03-01T14:20:54;11.45;;;10.32;;
19566;SDS011;9930;49.240;8.548;2023-03-01T14:23:23;11.57;;;10.48;;
19566;SDS011;9930;49.240;8.548;2023-03-01T14:25:53;12.60;;;11.30;;
19566;SDS011;9930;49.240;8.548;2023-03-01T14:28:26;12.23;;;11.00;;
19566;SDS011;9930;49.240;8.548;2023-03-01T14:30:59;11.32;;;10.18;;
19566;SDS011;9930;49.240;8.548;2023-03-01T14:33:33;11.60;;;10.48;;
19566;SDS011;9930;49.240;8.548;2023-03-01T14:36:09;12.40;;;11.20;;
19566;SDS011;9930;49.240;8.548;2023-03-01T14:41:11;11.93;;;10.27;;
19566;SDS011;9930;49.240;8.548;2023-03-01T14:43:53;11.18;;;10.02;;
19566;SDS011;9930;49.240;8.548;2023-03-01T14:52:07;10.13;;;9.20;;
19566;SDS011;9930;49.240;8.548;2023-03-01T14:54:48;10.68;;;9.68;;
19566;SDS011;9930;49.240;8.548;2023-03-01T14:57:21;11.02;;;9.93;;
19566;SDS011;9930;49.240;8.548;2023-03-01T14:59:51;11.07;;;9.88;;
19566;SDS011;9930;49.240;8.548;2023-03-01T15:02:26;10.40;;;9.30;;
19566;SDS011;9930;49.240;8.548;2023-03-01T15:04:55;10.90;;;9.80;;
19566;SDS011;9930;49.240;8.548;2023-03-01T15:07:33;11.27;;;10.18;;
19566;SDS011;9930;49.240;8.548;2023-03-01T15:10:05;10.65;;;9.55;;
19566;SDS011;9930;49.240;8.548;2023-03-01T15:12:40;10.85;;;9.75;;
19566;SDS011;9930;49.240;8.548;2023-03-01T15:17:55;9.70;;;8.70;;
19566;SDS011;9930;49.240;8.548;2023-03-01T15:20:28;9.85;;;8.95;;
19566;SDS011;9930;49.240;8.548;2023-03-01T15:23:01;11.05;;;9.88;;
19566;SDS011;9930;49.240;8.548;2023-03-01T15:25:30;13.15;;;11.75;;
19566;SDS011;9930;49.240;8.548;2023-03-01T15:27:59;11.88;;;10.60;;
19566;SDS011;9930;49.240;8.548;2023-03-01T15:30:33;10.40;;;9.40;;
19566;SDS011;9930;49.240;8.548;2023-03-01T15:33:16;11.23;;;10.13;;
19566;SDS011;9930;49.240;8.548;2023-03-01T15:35:52;10.50;;;9.40;;
19566;SDS011;9930;49.240;8.548;2023-03-01T15:38:27;10.52;;;9.52;;
19566;SDS011;9930;49.240;8.548;2023-03-01T15:41:05;10.85;;;9.75;;
19566;SDS011;9930;49.240;8.548;2023-03-01T15:43:56;10.65;;;9.15;;
19566;SDS011;9930;49.240;8.548;2023-03-01T15:46:33;12.18;;;10.48;;
19566;SDS011;9930;49.240;8.548;2023-03-01T15:49:20;11.05;;;9.95;;
19566;SDS011;9930;49.240;8.548;2023-03-01T15:51:54;10.75;;;9.75;;
19566;SDS011;9930;49.240;8.548;2023-03-01T15:54:23;11.95;;;10.70;;
19566;SDS011;9930;49.240;8.548;2023-03-01T15:56:52;11.40;;;10.30;;
19566;SDS011;9930;49.240;8.548;2023-03-01T15:59:21;11.98;;;10.52;;
19566;SDS011;9930;49.240;8.548;2023-03-01T16:01:47;11.27;;;10.10;;
19566;SDS011;9930;49.240;8.548;2023-03-01T16:04:14;11.48;;;10.27;;
19566;SDS011;9930;49.240;8.548;2023-03-01T16:06:47;11.38;;;10.27;;
19566;SDS011;9930;49.240;8.548;2023-03-01T16:09:26;10.95;;;9.82;;
19566;SDS011;9930;49.240;8.548;2023-03-01T16:11:52;10.13;;;9.13;;
19566;SDS011;9930;49.240;8.548;2023-03-01T16:14:19;11.82;;;10.63;;
19566;SDS011;9930;49.240;8.548;2023-03-01T16:16:46;13.40;;;12.00;;
19566;SDS011;9930;49.240;8.548;2023-03-01T16:19:17;22.30;;;18.92;;
19566;SDS011;9930;49.240;8.548;2023-03-01T16:21:43;13.18;;;11.77;;
19566;SDS011;9930;49.240;8.548;2023-03-01T16:24:13;15.20;;;13.70;;
19566;SDS011;9930;49.240;8.548;2023-03-01T16:26:39;12.32;;;11.02;;
19566;SDS011;9930;49.240;8.548;2023-03-01T16:29:08;11.35;;;10.20;;
19566;SDS011;9930;49.240;8.548;2023-03-01T16:31:33;11.27;;;10.18;;
19566;SDS011;9930;49.240;8.548;2023-03-01T16:34:02;11.20;;;10.05;;
19566;SDS011;9930;49.240;8.548;2023-03-01T16:36:28;11.80;;;10.30;;
19566;SDS011;9930;49.240;8.548;2023-03-01T16:38:54;11.55;;;10.35;;
19566;SDS011;9930;49.240;8.548;2023-03-01T16:41:25;10.23;;;9.20;;
19566;SDS011;9930;49.240;8.548;2023-03-01T16:43:52;12.85;;;11.52;;
19566;SDS011;9930;49.240;8.548;2023-03-01T16:46:23;12.60;;;10.57;;
19566;SDS011;9930;49.240;8.548;2023-03-01T16:48:56;10.98;;;9.43;;
19566;SDS011;9930;49.240;8.548;2023-03-01T16:51:22;10.48;;;9.38;;
19566;SDS011;9930;49.240;8.548;2023-03-01T16:53:54;10.43;;;9.32;;
19566;SDS011;9930;49.240;8.548;2023-03-01T16:56:20;10.15;;;9.15;;
19566;SDS011;9930;49.240;8.548;2023-03-01T16:58:50;10.38;;;9.27;;
19566;SDS011;9930;49.240;8.548;2023-03-01T17:01:17;11.13;;;9.55;;
19566;SDS011;9930;49.240;8.548;2023-03-01T17:03:48;10.32;;;9.23;;
19566;SDS011;9930;49.240;8.548;2023-03-01T17:06:16;9.45;;;8.43;;
19566;SDS011;9930;49.240;8.548;2023-03-01T17:08:47;10.40;;;9.30;;
19566;SDS011;9930;49.240;8.548;2023-03-01T17:11:16;9.43;;;8.43;;
19566;SDS011;9930;49.240;8.548;2023-03-01T17:13:46;9.63;;;8.63;;
19566;SDS011;9930;49.240;8.548;2023-03-01T17:16:13;9.32;;;8.43;;
19566;SDS011;9930;49.240;8.548;2023-03-01T17:18:44;11.15;;;9.15;;
19566;SDS011;9930;49.240;8.548;2023-03-01T17:21:13;10.50;;;8.85;;
19566;SDS011;9930;49.240;8.548;2023-03-01T17:23:42;10.88;;;9.77;;
19566;SDS011;9930;49.240;8.548;2023-03-01T17:26:10;10.93;;;9.35;;
19566;SDS011;9930;49.240;8.548;2023-03-01T17:28:37;10.63;;;9.57;;
19566;SDS011;9930;49.240;8.548;2023-03-01T17:31:05;11.35;;;10.15;;
19566;SDS011;9930;49.240;8.548;2023-03-01T17:33:34;10.88;;;9.77;;
19566;SDS011;9930;49.240;8.548;2023-03-01T17:36:03;12.02;;;10.13;;
19566;SDS011;9930;49.240;8.548;2023-03-01T17:38:32;11.73;;;10.40;;
19566;SDS011;9930;49.240;8.548;2023-03-01T17:41:02;12.07;;;10.85;;